This is the latest recevied weather packets stored in our database for station/object OE5ERN-10. If no packets are shown the sender has not sent any weather packets the latest 10 day(s).
| Time | Temp. | Humidity | Pressure | Rain* | Wind** | Luminosity | Snow |
|---|---|---|---|---|---|---|---|
| 1776948057 | 18.89° C | 31% | 1025.9 hPa | 0 mm | - | - | - |
| 1776947157 | 18.89° C | 32% | 1026 hPa | 0 mm | - | - | - |
| 1776946257 | 18.89° C | 32% | 1026.3 hPa | 0 mm | - | - | - |
| 1776945357 | 18.33° C | 34% | 1026.5 hPa | 0 mm | - | - | - |
| 1776944457 | 17.22° C | 34% | 1026.6 hPa | 0 mm | - | - | - |
| 1776943557 | 17.78° C | 34% | 1026.9 hPa | 0 mm | - | - | - |
| 1776942657 | 17.78° C | 34% | 1027.3 hPa | 0 mm | - | - | - |
| 1776941757 | 17.22° C | 34% | 1027.5 hPa | 0 mm | - | - | - |
| 1776940857 | 17.22° C | 34% | 1027.5 hPa | 0 mm | - | - | - |
| 1776939957 | 17.22° C | 33% | 1027.7 hPa | 0 mm | - | - | - |
| 1776939058 | 18.33° C | 31% | 1028.1 hPa | 0 mm | - | - | - |
| 1776938158 | 22.78° C | 25% | 1028.1 hPa | 0 mm | - | - | - |
| 1776937257 | 28.33° C | 22% | 1028.2 hPa | 0 mm | - | - | - |
| 1776936357 | 29.44° C | 22% | 1028.3 hPa | 0 mm | - | - | - |
| 1776935458 | 27.78° C | 23% | 1028.4 hPa | 0 mm | - | - | - |
| 1776934558 | 27.78° C | 25% | 1028.4 hPa | 0 mm | - | - | - |
| 1776933658 | 25.56° C | 28% | 1028.7 hPa | 0 mm | - | - | - |
| 1776932758 | 23.89° C | 29% | 1029 hPa | 0 mm | - | - | - |
| 1776931858 | 23.33° C | 29% | 1028.9 hPa | 0 mm | - | - | - |
| 1776930958 | 25.56° C | 27% | 1028.9 hPa | 0 mm | - | - | - |
| 1776930058 | 28.89° C | 23% | 1029.1 hPa | 0 mm | - | - | - |
| 1776929158 | 27.78° C | 26% | 1029.3 hPa | 0 mm | - | - | - |
| 1776928258 | 26.11° C | 27% | 1029.2 hPa | 0 mm | - | - | - |
| 1776927358 | 27.22° C | 27% | 1029.2 hPa | 0 mm | - | - | - |
| 1776926458 | 25° C | 30% | 1029.3 hPa | 0 mm | - | - | - |
* Rain latest hour (hover to see other rain measurements)
** Current wind speed in m/s (hover to see current wind gust speed)